createdAt,value
2018-12-25T00:00:14.187Z,102903.45
2018-12-25T00:02:43.899Z,102906.07
2018-12-25T00:05:13.195Z,102906.98
2018-12-25T00:07:42.540Z,102906.08
2018-12-25T00:10:12.161Z,102901.20
2018-12-25T00:12:41.499Z,102900.74
2018-12-25T00:15:10.968Z,102902.07
2018-12-25T00:17:40.309Z,102900.74
2018-12-25T00:20:09.657Z,102906.98
2018-12-25T00:22:39.083Z,102883.09
2018-12-25T00:25:08.426Z,102906.39
2018-12-25T00:27:39.130Z,102910.81
2018-12-25T00:30:08.783Z,102917.84
2018-12-25T00:32:38.063Z,102916.84
2018-12-25T00:35:07.756Z,102923.52
2018-12-25T00:37:45.965Z,102923.00
2018-12-25T00:40:15.318Z,102924.73
2018-12-25T00:42:44.741Z,102919.38
2018-12-25T00:45:14.081Z,102910.48
2018-12-25T00:47:44.120Z,102907.33
2018-12-25T00:50:13.514Z,102901.05
2018-12-25T00:52:42.848Z,102899.66
2018-12-25T00:55:12.195Z,102901.78
2018-12-25T00:57:41.527Z,102902.16
2018-12-25T01:00:10.875Z,102903.45
2018-12-25T01:02:40.208Z,102895.83
2018-12-25T01:05:09.565Z,102903.79
2018-12-25T01:07:38.894Z,102905.13
2018-12-25T01:10:08.245Z,102903.31
2018-12-25T01:12:37.578Z,102905.94
2018-12-25T01:15:06.972Z,102902.70
2018-12-25T01:17:36.310Z,102909.38
2018-12-25T01:20:05.654Z,102900.41
2018-12-25T01:22:34.986Z,102910.13
2018-12-25T01:25:04.471Z,102905.22
2018-12-25T01:27:34.838Z,102911.47
2018-12-25T01:30:05.030Z,102904.84
2018-12-25T01:32:34.362Z,102906.61
2018-12-25T01:35:04.026Z,102904.80
2018-12-25T01:37:33.351Z,102901.17
2018-12-25T01:40:02.698Z,102903.84
2018-12-25T01:42:32.044Z,102906.46
2018-12-25T01:45:01.392Z,102904.22
2018-12-25T01:47:30.973Z,102906.42
2018-12-25T01:50:00.330Z,102907.75
2018-12-25T01:52:29.656Z,102901.64
2018-12-25T01:54:59.009Z,102895.88
2018-12-25T01:57:28.349Z,102891.44
2018-12-25T01:59:57.692Z,102899.83
2018-12-25T02:02:27.018Z,102898.49
2018-12-25T02:04:56.612Z,102898.11
2018-12-25T02:07:26.275Z,102904.36
2018-12-25T02:09:55.628Z,102907.95
2018-12-25T02:12:24.968Z,102909.32
2018-12-25T02:14:54.320Z,102905.33
2018-12-25T02:17:23.658Z,102906.19
2018-12-25T02:19:53.740Z,102895.07
2018-12-25T02:22:23.089Z,102898.69
2018-12-25T02:24:54.770Z,102894.25
2018-12-25T02:27:24.709Z,102900.94
2018-12-25T02:29:54.045Z,102895.64
2018-12-25T02:32:23.685Z,102894.30
2018-12-25T02:34:54.236Z,102885.44
2018-12-25T02:37:35.497Z,102881.91
2018-12-25T02:40:06.061Z,102876.19
2018-12-25T02:42:35.408Z,102868.22
2018-12-25T02:45:05.324Z,102866.02
2018-12-25T02:47:34.643Z,102870.08
2018-12-25T02:50:04.064Z,102869.65
2018-12-25T02:52:33.464Z,102879.86
2018-12-25T02:55:02.824Z,102879.86
2018-12-25T02:57:32.156Z,102883.47
2018-12-25T03:00:01.511Z,102880.28
2018-12-25T03:02:30.846Z,102881.57
2018-12-25T03:05:00.189Z,102882.86
2018-12-25T03:07:29.527Z,102874.37
2018-12-25T03:09:58.879Z,102869.89
2018-12-25T03:12:29.386Z,102870.27
2018-12-25T03:14:58.718Z,102870.23
2018-12-25T03:17:28.306Z,102872.84
2018-12-25T03:19:59.976Z,102868.89
2018-12-25T03:22:28.694Z,102861.69
2018-12-25T03:24:59.601Z,102861.70
2018-12-25T03:27:28.966Z,102866.13
2018-12-25T03:29:58.297Z,102863.45
2018-12-25T03:32:27.918Z,102854.11
2018-12-25T03:34:57.237Z,102855.02
2018-12-25T03:37:26.621Z,102861.69
2018-12-25T03:39:55.949Z,102863.44
2018-12-25T03:42:25.300Z,102855.38
2018-12-25T03:44:54.636Z,102854.43
2018-12-25T03:47:23.984Z,102850.85
2018-12-25T03:49:53.335Z,102858.34
2018-12-25T03:52:22.679Z,102867.16
2018-12-25T03:54:52.265Z,102863.09
2018-12-25T03:57:21.619Z,102856.04
2018-12-25T03:59:51.023Z,102854.52
2018-12-25T04:02:20.371Z,102850.94
2018-12-25T04:04:49.955Z,102853.70
2018-12-25T04:07:19.296Z,102847.03
2018-12-25T04:09:48.622Z,102844.88
2018-12-25T04:12:18.210Z,102842.73
2018-12-25T04:14:47.790Z,102839.12
2018-12-25T04:17:17.378Z,102830.72
2018-12-25T04:19:46.713Z,102831.62
2018-12-25T04:22:16.310Z,102824.52
2018-12-25T04:24:45.895Z,102825.76
2018-12-25T04:27:15.246Z,102832.91
2018-12-25T04:29:44.578Z,102838.30
2018-12-25T04:32:13.931Z,102840.16
2018-12-25T04:34:43.267Z,102834.77
2018-12-25T04:37:12.854Z,102843.64
2018-12-25T04:39:42.191Z,102840.98
2018-12-25T04:42:11.541Z,102836.16
2018-12-25T04:44:40.878Z,102843.73
2018-12-25T04:47:10.227Z,102834.81
2018-12-25T04:49:39.566Z,102841.50
2018-12-25T04:52:08.910Z,102829.05
2018-12-25T04:54:38.238Z,102841.08
2018-12-25T04:57:07.760Z,102843.80
2018-12-25T04:59:37.100Z,102834.83
2018-12-25T05:02:06.451Z,102842.41
2018-12-25T05:04:35.807Z,102843.73
2018-12-25T05:07:05.141Z,102856.52
2018-12-25T05:09:34.478Z,102853.37
2018-12-25T05:12:03.814Z,102843.55
2018-12-25T05:14:33.164Z,102848.07
2018-12-25T05:17:02.495Z,102850.75
2018-12-25T05:19:32.090Z,102860.58
2018-12-25T05:22:01.423Z,102867.68
2018-12-25T05:24:30.766Z,102857.42
2018-12-25T05:27:00.155Z,102856.91
2018-12-25T05:29:35.830Z,102858.66
2018-12-25T05:32:05.203Z,102858.66
2018-12-25T05:34:34.516Z,102855.56
2018-12-25T05:37:04.119Z,102868.48
2018-12-25T05:39:33.467Z,102873.41
2018-12-25T05:42:02.891Z,102874.73
2018-12-25T05:44:32.241Z,102872.98
2018-12-25T05:47:01.572Z,102857.48
2018-12-25T05:49:31.167Z,102855.19
2018-12-25T05:52:00.746Z,102859.56
2018-12-25T05:54:30.084Z,102854.22
2018-12-25T05:56:59.428Z,102849.79
2018-12-25T05:59:28.786Z,102850.27
2018-12-25T06:01:58.124Z,102850.70
2018-12-25T06:04:27.769Z,102853.70
2018-12-25T06:06:57.104Z,102859.75
2018-12-25T06:09:26.451Z,102856.06
2018-12-25T06:11:55.790Z,102859.92
2018-12-25T06:14:27.590Z,102856.72
2018-12-25T06:16:56.921Z,102844.64
2018-12-25T06:19:26.523Z,102843.73
2018-12-25T06:21:56.103Z,102857.58
2018-12-25T06:24:25.562Z,102859.88
2018-12-25T06:26:54.860Z,102866.66
2018-12-25T06:29:24.204Z,102855.16
2018-12-25T06:31:53.540Z,102854.83
2018-12-25T06:34:23.131Z,102856.17
2018-12-25T06:36:56.751Z,102848.20
2018-12-25T06:39:26.355Z,102839.70
2018-12-25T06:41:56.054Z,102838.80
2018-12-25T06:44:26.174Z,102850.41
2018-12-25T06:46:55.513Z,102848.64
2018-12-25T06:49:24.868Z,102853.16
2018-12-25T06:51:54.254Z,102836.71
2018-12-25T06:54:23.619Z,102836.23
2018-12-25T06:56:52.960Z,102829.93
2018-12-25T06:59:22.553Z,102826.78
2018-12-25T07:01:51.882Z,102829.93
2018-12-25T07:04:21.474Z,102832.55
2018-12-25T07:06:50.802Z,102830.31
2018-12-25T07:09:20.182Z,102825.66
2018-12-25T07:11:49.550Z,102821.44
2018-12-25T07:14:18.882Z,102818.23
2018-12-25T07:16:48.223Z,102805.34
2018-12-25T07:19:17.570Z,102813.27
2018-12-25T07:21:47.162Z,102809.73
2018-12-25T07:24:16.509Z,102814.55
2018-12-25T07:26:45.858Z,102807.32
2018-12-25T07:29:15.187Z,102806.83
2018-12-25T07:31:44.523Z,102801.06
2018-12-25T07:34:15.396Z,102785.87
2018-12-25T07:36:46.694Z,102778.17
2018-12-25T07:39:16.030Z,102772.71
2018-12-25T07:41:45.385Z,102770.51
2018-12-25T07:44:14.741Z,102773.25
2018-12-25T07:46:45.655Z,102769.29
2018-12-25T07:49:15.004Z,102761.34
2018-12-25T07:51:44.359Z,102767.17
2018-12-25T07:54:13.958Z,102780.16
2018-12-25T07:56:43.383Z,102783.69
2018-12-25T07:59:12.712Z,102791.70
2018-12-25T08:01:42.063Z,102788.12
2018-12-25T08:04:11.400Z,102789.83
2018-12-25T08:06:40.475Z,102794.33
2018-12-25T08:09:10.048Z,102794.75
2018-12-25T08:11:39.390Z,102797.73
2018-12-25T08:14:08.737Z,102799.50
2018-12-25T08:16:38.313Z,102792.45
2018-12-25T08:19:07.657Z,102794.64
2018-12-25T08:21:37.250Z,102793.35
2018-12-25T08:24:06.727Z,102804.95
2018-12-25T08:26:36.009Z,102804.05
2018-12-25T08:29:05.347Z,102809.67
2018-12-25T08:31:34.698Z,102805.12
2018-12-25T08:34:04.264Z,102807.29
2018-12-25T08:36:33.619Z,102810.77
2018-12-25T08:39:04.057Z,102820.56
2018-12-25T08:41:33.411Z,102816.11
2018-12-25T08:44:02.739Z,102823.66
2018-12-25T08:46:32.096Z,102825.86
2018-12-25T08:49:01.444Z,102831.62
2018-12-25T08:51:37.597Z,102828.95
2018-12-25T08:54:02.085Z,102829.80
2018-12-25T08:56:31.417Z,102838.73
2018-12-25T08:59:00.994Z,102835.09
2018-12-25T09:01:30.388Z,102837.66
2018-12-25T09:03:59.773Z,102837.77
2018-12-25T09:06:29.778Z,102837.70
2018-12-25T09:08:59.156Z,102838.56
2018-12-25T09:11:28.498Z,102838.06
2018-12-25T09:13:57.842Z,102843.80
2018-12-25T09:16:27.505Z,102845.50
2018-12-25T09:18:56.896Z,102852.50
2018-12-25T09:21:26.189Z,102857.30
2018-12-25T09:23:55.549Z,102855.66
2018-12-25T09:26:25.187Z,102848.23
2018-12-25T09:28:55.655Z,102844.64
2018-12-25T09:31:24.985Z,102839.23
2018-12-25T09:33:54.588Z,102848.01
2018-12-25T09:36:23.944Z,102851.48
2018-12-25T09:38:53.304Z,102843.02
2018-12-25T09:41:22.630Z,102850.52
2018-12-25T09:43:52.140Z,102842.47
2018-12-25T09:46:21.471Z,102847.35
2018-12-25T09:48:50.820Z,102851.24
2018-12-25T09:51:20.395Z,102851.67
2018-12-25T09:53:50.545Z,102863.17
2018-12-25T09:56:19.883Z,102856.11
2018-12-25T09:58:49.239Z,102851.20
2018-12-25T10:01:18.818Z,102857.02
2018-12-25T10:03:48.338Z,102848.01
2018-12-25T10:06:17.672Z,102843.82
2018-12-25T10:08:47.458Z,102850.46
2018-12-25T10:11:16.789Z,102843.77
2018-12-25T10:13:46.186Z,102843.72
2018-12-25T10:16:15.796Z,102841.99
2018-12-25T10:18:45.132Z,102833.54
2018-12-25T10:21:14.523Z,102825.45
2018-12-25T10:23:44.105Z,102818.69
2018-12-25T10:26:13.486Z,102819.12
2018-12-25T10:28:42.815Z,102821.25
2018-12-25T10:31:12.187Z,102826.97
2018-12-25T10:33:41.524Z,102818.52
2018-12-25T10:36:10.891Z,102824.31
2018-12-25T10:38:45.961Z,102823.80
2018-12-25T10:41:15.345Z,102825.13
2018-12-25T10:43:44.924Z,102832.69
2018-12-25T10:46:14.284Z,102837.97
2018-12-25T10:48:43.625Z,102825.92
2018-12-25T10:51:12.988Z,102832.62
2018-12-25T10:53:42.318Z,102830.02
2018-12-25T10:56:11.683Z,102819.30
2018-12-25T10:58:41.016Z,102822.90
2018-12-25T11:01:12.507Z,102818.81
2018-12-25T11:03:41.836Z,102828.92
2018-12-25T11:06:11.178Z,102820.83
2018-12-25T11:08:40.513Z,102816.74
2018-12-25T11:11:10.093Z,102813.59
2018-12-25T11:13:39.459Z,102815.45
2018-12-25T11:16:09.091Z,102809.55
2018-12-25T11:18:38.670Z,102811.25
2018-12-25T11:21:08.036Z,102807.97
2018-12-25T11:23:37.367Z,102814.17
2018-12-25T11:26:06.720Z,102805.58
2018-12-25T11:28:36.299Z,102809.58
2018-12-25T11:31:05.656Z,102810.38
2018-12-25T11:33:35.226Z,102797.83
2018-12-25T11:36:04.667Z,102802.34
2018-12-25T11:38:38.046Z,102796.63
2018-12-25T11:41:07.378Z,102804.22
2018-12-25T11:43:36.982Z,102809.52
2018-12-25T11:46:06.322Z,102800.94
2018-12-25T11:48:35.671Z,102797.62
2018-12-25T11:51:05.036Z,102797.48
2018-12-25T11:53:34.410Z,102801.75
2018-12-25T11:56:03.749Z,102792.58
2018-12-25T11:58:33.094Z,102797.38
2018-12-25T12:01:02.455Z,102797.12
2018-12-25T12:03:31.789Z,102798.73
2018-12-25T12:06:01.213Z,102793.49
2018-12-25T12:08:30.565Z,102794.86
2018-12-25T12:10:59.885Z,102797.23
2018-12-25T12:13:29.290Z,102798.99
2018-12-25T12:15:58.624Z,102803.03
2018-12-25T12:18:27.984Z,102802.31
2018-12-25T12:20:57.314Z,102793.91
2018-12-25T12:23:27.658Z,102789.06
2018-12-25T12:25:56.991Z,102794.97
2018-12-25T12:28:26.332Z,102788.20
2018-12-25T12:30:55.687Z,102792.58
2018-12-25T12:33:25.265Z,102797.43
2018-12-25T12:35:55.588Z,102794.61
2018-12-25T12:38:34.228Z,102785.59
2018-12-25T12:41:03.564Z,102787.49
2018-12-25T12:43:32.907Z,102785.17
2018-12-25T12:46:02.490Z,102793.99
2018-12-25T12:48:32.357Z,102787.73
2018-12-25T12:51:01.711Z,102790.03
2018-12-25T12:53:31.075Z,102796.76
2018-12-25T12:56:00.397Z,102782.08
2018-12-25T12:58:29.784Z,102784.14
2018-12-25T13:00:59.154Z,102786.73
2018-12-25T13:03:28.749Z,102781.16
2018-12-25T13:05:58.089Z,102779.95
2018-12-25T13:08:27.625Z,102772.36
2018-12-25T13:10:57.286Z,102778.26
2018-12-25T13:13:26.655Z,102771.02
2018-12-25T13:15:58.341Z,102773.95
2018-12-25T13:18:27.714Z,102764.79
2018-12-25T13:20:57.035Z,102767.05
2018-12-25T13:23:26.394Z,102761.69
2018-12-25T13:25:55.716Z,102765.86
2018-12-25T13:28:25.129Z,102762.04
2018-12-25T13:30:54.710Z,102765.36
2018-12-25T13:33:24.054Z,102774.73
2018-12-25T13:35:54.348Z,102770.24
2018-12-25T13:38:23.705Z,102773.26
2018-12-25T13:40:53.043Z,102774.68
2018-12-25T13:43:22.428Z,102765.78
2018-12-25T13:45:51.826Z,102773.70
2018-12-25T13:48:21.213Z,102779.13
2018-12-25T13:50:50.532Z,102772.48
2018-12-25T13:53:19.918Z,102769.37
2018-12-25T13:55:49.344Z,102776.38
2018-12-25T13:58:18.682Z,102777.34
2018-12-25T14:00:48.007Z,102779.48
2018-12-25T14:03:17.350Z,102767.84
2018-12-25T14:05:46.681Z,102771.86
2018-12-25T14:08:16.031Z,102769.16
2018-12-25T14:10:46.332Z,102773.05
2018-12-25T14:13:15.788Z,102778.00
2018-12-25T14:15:45.094Z,102774.34
2018-12-25T14:18:14.455Z,102773.48
2018-12-25T14:20:43.781Z,102769.81
2018-12-25T14:23:13.134Z,102784.11
2018-12-25T14:25:42.462Z,102779.25
2018-12-25T14:28:11.798Z,102773.48
2018-12-25T14:30:41.137Z,102774.31
2018-12-25T14:33:10.468Z,102767.97
2018-12-25T14:35:39.817Z,102774.17
2018-12-25T14:38:09.760Z,102773.33
2018-12-25T14:40:39.349Z,102778.61
2018-12-25T14:43:09.160Z,102775.39
2018-12-25T14:45:38.510Z,102779.41
2018-12-25T14:48:08.343Z,102776.28
2018-12-25T14:50:38.032Z,102789.57
2018-12-25T14:53:07.363Z,102790.11
2018-12-25T14:55:37.775Z,102787.01
2018-12-25T14:58:07.684Z,102791.47
2018-12-25T15:00:38.235Z,102785.25
2018-12-25T15:03:07.811Z,102778.97
2018-12-25T15:05:37.560Z,102777.56
2018-12-25T15:08:07.336Z,102777.20
2018-12-25T15:10:37.183Z,102781.29
2018-12-25T15:13:06.845Z,102781.70
2018-12-25T15:15:36.401Z,102778.97
2018-12-25T15:18:05.836Z,102784.33
2018-12-25T15:20:35.747Z,102778.61
2018-12-25T15:23:05.338Z,102789.69
2018-12-25T15:25:35.828Z,102786.67
2018-12-25T15:28:05.159Z,102790.55
2018-12-25T15:30:35.332Z,102782.93
2018-12-25T15:33:04.973Z,102780.39
2018-12-25T15:35:35.187Z,102782.21
2018-12-25T15:38:04.521Z,102785.81
2018-12-25T15:40:34.646Z,102780.03
2018-12-25T15:43:03.972Z,102785.39
2018-12-25T15:45:33.331Z,102774.81
2018-12-25T15:48:02.659Z,102781.04
2018-12-25T15:50:32.013Z,102781.99
2018-12-25T15:53:01.338Z,102780.38
2018-12-25T15:55:30.865Z,102776.94
2018-12-25T15:58:00.188Z,102780.52
2018-12-25T16:00:31.993Z,102780.52
2018-12-25T16:03:01.202Z,102776.02
2018-12-25T16:05:31.014Z,102782.64
2018-12-25T16:08:00.388Z,102783.08
2018-12-25T16:10:30.475Z,102779.23
2018-12-25T16:12:59.750Z,102778.03
2018-12-25T16:15:29.096Z,102772.67
2018-12-25T16:17:58.670Z,102779.37
2018-12-25T16:20:28.264Z,102778.90
2018-12-25T16:22:58.561Z,102777.48
2018-12-25T16:25:27.938Z,102777.48
2018-12-25T16:27:57.507Z,102778.40
2018-12-25T16:30:27.730Z,102783.78
2018-12-25T16:32:58.458Z,102793.27
2018-12-25T16:35:28.156Z,102793.22
2018-12-25T16:37:57.497Z,102795.05
2018-12-25T16:40:27.056Z,102798.77
2018-12-25T16:42:57.291Z,102793.91
2018-12-25T16:45:27.112Z,102797.01
2018-12-25T16:47:58.618Z,102791.17
2018-12-25T16:50:28.239Z,102788.11
2018-12-25T16:52:58.293Z,102793.83
2018-12-25T16:55:27.660Z,102794.27
2018-12-25T16:57:57.347Z,102787.49
2018-12-25T17:00:26.676Z,102791.57
2018-12-25T17:02:56.606Z,102795.59
2018-12-25T17:05:26.226Z,102793.85
2018-12-25T17:07:57.451Z,102795.73
2018-12-25T17:10:27.175Z,102793.07
2018-12-25T17:12:56.659Z,102790.92
2018-12-25T17:15:25.984Z,102790.50
2018-12-25T17:17:56.139Z,102788.19
2018-12-25T17:20:25.753Z,102782.47
2018-12-25T17:22:55.092Z,102784.73
2018-12-25T17:25:24.467Z,102787.34
2018-12-25T17:27:54.212Z,102783.33
2018-12-25T17:30:23.623Z,102782.91
2018-12-25T17:32:52.968Z,102791.06
2018-12-25T17:35:22.296Z,102787.55
2018-12-25T17:37:51.648Z,102786.63
2018-12-25T17:40:20.978Z,102792.34
2018-12-25T17:42:50.336Z,102780.23
2018-12-25T17:45:19.961Z,102792.34
2018-12-25T17:47:49.307Z,102788.80
2018-12-25T17:50:23.169Z,102791.92
2018-12-25T17:52:52.516Z,102791.08
2018-12-25T17:55:21.855Z,102787.20
2018-12-25T17:57:51.248Z,102793.45
2018-12-25T18:00:20.601Z,102788.04
2018-12-25T18:02:50.193Z,102802.34
2018-12-25T18:05:19.522Z,102790.44
2018-12-25T18:07:49.115Z,102790.06
2018-12-25T18:10:18.458Z,102790.18
2018-12-25T18:12:47.791Z,102791.54
2018-12-25T18:15:17.145Z,102790.70
2018-12-25T18:17:46.486Z,102785.89
2018-12-25T18:20:15.836Z,102784.19
2018-12-25T18:22:46.714Z,102781.02
2018-12-25T18:25:16.378Z,102784.55
2018-12-25T18:27:45.720Z,102781.56
2018-12-25T18:30:15.063Z,102780.66
2018-12-25T18:32:44.402Z,102778.95
2018-12-25T18:35:14.726Z,102779.94
2018-12-25T18:37:44.073Z,102781.77
2018-12-25T18:40:13.720Z,102778.23
2018-12-25T18:42:44.047Z,102779.58
2018-12-25T18:45:14.253Z,102784.81
2018-12-25T18:47:45.233Z,102777.76
2018-12-25T18:50:15.307Z,102786.77
2018-12-25T18:52:44.650Z,102793.51
2018-12-25T18:55:15.453Z,102788.52
2018-12-25T18:57:48.468Z,102790.34
2018-12-25T19:00:18.428Z,102800.56
2018-12-25T19:02:47.770Z,102794.84
2018-12-25T19:05:17.391Z,102801.12
2018-12-25T19:07:46.756Z,102800.22
2018-12-25T19:10:16.869Z,102782.44
2018-12-25T19:12:46.207Z,102785.55
2018-12-25T19:15:20.761Z,102789.70
2018-12-25T19:17:51.883Z,102773.22
2018-12-25T19:20:21.257Z,102778.13
2018-12-25T19:22:50.881Z,102779.95
2018-12-25T19:25:39.955Z,102783.92
2018-12-25T19:28:21.786Z,102777.78
2018-12-25T19:30:42.716Z,102786.34
2018-12-25T19:33:12.046Z,102785.94
2018-12-25T19:35:41.629Z,102786.46
2018-12-25T19:38:10.970Z,102782.81
2018-12-25T19:40:40.338Z,102785.86
2018-12-25T19:43:10.331Z,102782.32
2018-12-25T19:45:40.062Z,102775.63
2018-12-25T19:48:09.770Z,102786.46
2018-12-25T19:50:39.133Z,102788.31
2018-12-25T19:53:08.720Z,102791.83
2018-12-25T19:55:38.076Z,102788.72
2018-12-25T19:58:07.556Z,102795.84
2018-12-25T20:00:36.913Z,102798.16
2018-12-25T20:03:07.089Z,102795.95
2018-12-25T20:05:56.299Z,102794.56
2018-12-25T20:08:31.821Z,102788.73
2018-12-25T20:11:07.166Z,102790.05
2018-12-25T20:14:11.690Z,102790.18
2018-12-25T20:17:00.903Z,102788.84
2018-12-25T20:19:55.533Z,102793.30
2018-12-25T20:22:30.607Z,102792.08
2018-12-25T20:25:29.329Z,102791.27
2018-12-25T20:28:19.715Z,102797.01
2018-12-25T20:31:04.602Z,102805.51
2018-12-25T20:34:06.067Z,102795.30
2018-12-25T20:36:54.321Z,102790.48
2018-12-25T20:39:32.320Z,102786.95
2018-12-25T20:42:20.542Z,102790.55
2018-12-25T20:45:01.767Z,102776.75
2018-12-25T20:47:39.990Z,102787.99
2018-12-25T20:50:38.652Z,102786.70
2018-12-25T20:53:26.769Z,102781.36
2018-12-25T20:56:09.079Z,102785.48
2018-12-25T20:58:56.735Z,102784.09
2018-12-25T21:01:30.195Z,102770.73
2018-12-25T21:04:23.969Z,102772.06
2018-12-25T21:07:30.326Z,102770.38
2018-12-25T21:10:34.802Z,102771.71
2018-12-25T21:13:49.063Z,102774.44
2018-12-25T21:16:39.556Z,102777.16
2018-12-25T21:19:25.086Z,102771.02
2018-12-25T21:22:01.052Z,102774.54
2018-12-25T21:25:09.880Z,102774.55
2018-12-25T21:27:37.596Z,102771.02
2018-12-25T21:30:07.275Z,102769.63
2018-12-25T21:32:38.333Z,102775.03
2018-12-25T21:35:13.811Z,102775.15
2018-12-25T21:37:43.811Z,102764.95
2018-12-25T21:40:13.154Z,102771.14
2018-12-25T21:42:44.397Z,102770.59
2018-12-25T21:45:14.051Z,102767.92
2018-12-25T21:47:44.500Z,102769.85
2018-12-25T21:50:16.480Z,102768.05
2018-12-25T21:52:46.027Z,102766.28
2018-12-25T21:55:18.845Z,102762.64
2018-12-25T21:57:47.179Z,102763.11
2018-12-25T22:00:16.521Z,102763.17
2018-12-25T22:02:46.221Z,102766.77
2018-12-25T22:05:15.833Z,102768.09
2018-12-25T22:07:46.416Z,102771.14
2018-12-25T22:10:15.762Z,102767.02
2018-12-25T22:12:45.150Z,102763.00
2018-12-25T22:15:14.520Z,102758.98
2018-12-25T22:17:44.157Z,102763.96
2018-12-25T22:20:19.689Z,102763.96
2018-12-25T22:22:49.054Z,102761.73
2018-12-25T22:25:26.856Z,102765.37
2018-12-25T22:27:49.510Z,102764.03
2018-12-25T22:30:19.094Z,102759.17
2018-12-25T22:32:48.442Z,102758.31
2018-12-25T22:35:17.783Z,102762.77
2018-12-25T22:37:47.140Z,102753.41
2018-12-25T22:40:16.486Z,102763.19
2018-12-25T22:42:45.822Z,102756.92
2018-12-25T22:45:15.207Z,102744.95
2018-12-25T22:47:44.912Z,102748.48
2018-12-25T22:50:14.257Z,102756.73
2018-12-25T22:52:43.608Z,102750.64
2018-12-25T22:55:15.033Z,102751.23
2018-12-25T22:57:46.369Z,102746.39
2018-12-25T23:00:16.307Z,102755.89
2018-12-25T23:02:46.626Z,102748.48
2018-12-25T23:05:16.090Z,102745.50
2018-12-25T23:07:45.428Z,102753.19
2018-12-25T23:10:14.790Z,102740.31
2018-12-25T23:12:44.223Z,102744.81
2018-12-25T23:15:13.817Z,102747.97
2018-12-25T23:17:43.986Z,102741.45
2018-12-25T23:20:13.646Z,102747.59
2018-12-25T23:22:42.982Z,102742.61
2018-12-25T23:25:12.624Z,102741.22
2018-12-25T23:27:42.359Z,102741.66
2018-12-25T23:30:11.678Z,102745.77
2018-12-25T23:32:41.103Z,102744.01
2018-12-25T23:35:11.536Z,102743.53
2018-12-25T23:37:42.596Z,102742.63
2018-12-25T23:40:11.937Z,102735.51
2018-12-25T23:42:41.288Z,102735.99
2018-12-25T23:45:10.885Z,102729.84
2018-12-25T23:47:40.243Z,102728.14
2018-12-25T23:50:09.576Z,102724.14
2018-12-25T23:52:38.932Z,102722.86
2018-12-25T23:55:08.266Z,102718.09
2018-12-25T23:57:37.948Z,102719.50
